createdAt,value
2022-09-22T00:46:49.224Z,3.60
2022-09-22T00:49:44.687Z,2.50
2022-09-22T00:52:41.310Z,2.40
2022-09-22T00:55:16.836Z,3.70
2022-09-22T00:57:47.039Z,3.97
2022-09-22T01:00:15.604Z,2.20
2022-09-22T01:02:47.613Z,3.90
2022-09-22T01:05:15.401Z,3.03
2022-09-22T01:07:44.523Z,2.30
2022-09-22T01:10:27.548Z,2.43
2022-09-22T01:13:47.604Z,3.10
2022-09-22T01:16:54.491Z,3.50
2022-09-22T01:19:37.173Z,2.43
2022-09-22T01:22:26.880Z,2.30
2022-09-22T01:25:42.051Z,2.93
2022-09-22T01:28:31.054Z,4.20
2022-09-22T01:31:21.742Z,4.07
2022-09-22T01:34:27.267Z,5.53
2022-09-22T01:37:13.367Z,2.33
2022-09-22T01:39:46.045Z,8.07
2022-09-22T01:42:25.713Z,3.77
2022-09-22T01:45:02.226Z,3.13
2022-09-22T01:48:10.201Z,3.20
2022-09-22T01:51:08.441Z,3.10
2022-09-22T01:53:42.731Z,2.60
2022-09-22T01:56:18.205Z,2.43
2022-09-22T01:58:53.210Z,3.00
2022-09-22T02:01:26.480Z,2.63
2022-09-22T02:04:12.908Z,2.20
2022-09-22T02:06:48.025Z,3.07
2022-09-22T02:11:09.664Z,2.40
2022-09-22T02:12:21.282Z,2.27
2022-09-22T02:15:38.336Z,2.30
2022-09-22T02:18:13.640Z,2.07
2022-09-22T02:20:41.711Z,2.73
2022-09-22T02:23:08.761Z,3.53
2022-09-22T02:25:38.572Z,2.07
2022-09-22T02:28:07.805Z,3.77
2022-09-22T02:31:19.983Z,2.10
2022-09-22T02:33:48.576Z,2.97
2022-09-22T02:36:32.767Z,2.90
2022-09-22T02:39:09.935Z,2.20
2022-09-22T02:42:02.223Z,4.37
2022-09-22T02:44:57.461Z,2.00
2022-09-22T02:47:29.553Z,3.10
2022-09-22T02:50:05.815Z,4.03
2022-09-22T03:00:54.780Z,2.77
2022-09-22T03:03:25.514Z,2.83
2022-09-22T03:05:52.766Z,2.20
2022-09-22T03:13:17.508Z,2.60
2022-09-22T03:16:20.648Z,3.17
2022-09-22T03:18:47.836Z,3.53
2022-09-22T03:22:37.982Z,3.47
2022-09-22T03:25:10.589Z,1.80
2022-09-22T03:27:38.740Z,2.50
2022-09-22T03:30:08.399Z,2.20
2022-09-22T03:32:37.522Z,4.13
2022-09-22T03:35:35.495Z,2.27
2022-09-22T03:38:02.814Z,2.97
2022-09-22T03:40:30.036Z,4.00
2022-09-22T03:42:57.394Z,3.13
2022-09-22T03:45:25.160Z,2.40
2022-09-22T03:47:54.455Z,4.60
2022-09-22T03:50:30.027Z,4.47
2022-09-22T03:53:00.353Z,3.57
2022-09-22T03:55:27.490Z,2.50
2022-09-22T03:57:54.857Z,2.20
2022-09-22T04:00:22.007Z,3.60
2022-09-22T04:02:49.280Z,3.80
2022-09-22T04:05:16.613Z,3.83
2022-09-22T04:08:02.407Z,12.90
2022-09-22T04:10:29.549Z,5.07
2022-09-22T04:12:56.801Z,9.13
2022-09-22T04:15:24.053Z,5.30
2022-09-22T04:17:51.132Z,4.80
2022-09-22T04:24:38.216Z,6.20
2022-09-22T04:31:17.729Z,7.80
2022-09-22T04:33:44.861Z,7.13
2022-09-22T04:36:11.897Z,10.13
2022-09-22T04:38:39.056Z,5.83
2022-09-22T04:41:06.206Z,8.97
2022-09-22T04:43:33.268Z,5.20
2022-09-22T04:46:00.322Z,8.77
2022-09-22T04:48:27.519Z,7.73
2022-09-22T04:50:54.689Z,5.17
2022-09-22T04:53:21.748Z,15.03
2022-09-22T04:55:56.682Z,8.23
2022-09-22T04:58:24.144Z,8.13
2022-09-22T05:00:51.422Z,19.43
2022-09-22T05:03:22.195Z,76.47
2022-09-22T05:05:49.788Z,57.57
2022-09-22T05:08:16.832Z,53.10
2022-09-22T05:10:54.066Z,37.20
2022-09-22T05:13:21.473Z,7.67
2022-09-22T05:15:54.608Z,3.23
2022-09-22T05:21:20.585Z,4.17
2022-09-22T05:23:47.914Z,8.13
2022-09-22T05:26:30.981Z,3.00
2022-09-22T05:28:58.133Z,29.27
2022-09-22T05:31:25.346Z,3.63
2022-09-22T05:33:52.906Z,35.17
2022-09-22T05:36:19.990Z,38.90
2022-09-22T05:38:47.087Z,8.93
2022-09-22T05:41:14.199Z,22.30
2022-09-22T05:43:41.282Z,37.07
2022-09-22T05:46:09.162Z,50.20
2022-09-22T05:48:36.395Z,28.37
2022-09-22T05:51:03.569Z,19.37
2022-09-22T05:53:30.652Z,10.10
2022-09-22T06:02:25.178Z,14.57
2022-09-22T06:04:53.532Z,33.87
2022-09-22T06:07:22.124Z,15.50
2022-09-22T06:09:52.635Z,20.90
2022-09-22T06:12:19.875Z,8.10
2022-09-22T06:18:14.630Z,6.20
2022-09-22T06:21:07.145Z,11.23
2022-09-22T06:23:35.368Z,9.50
2022-09-22T06:26:16.525Z,18.83
2022-09-22T06:28:51.002Z,8.00
2022-09-22T06:31:31.874Z,13.17
2022-09-22T06:33:59.083Z,8.50
2022-09-22T06:36:32.130Z,16.03
2022-09-22T06:38:59.654Z,13.67
2022-09-22T06:41:28.790Z,12.73
2022-09-22T06:43:58.965Z,7.93
2022-09-22T06:46:28.281Z,8.03
2022-09-22T06:48:57.713Z,16.23
2022-09-22T06:51:43.204Z,10.70
2022-09-22T06:54:28.867Z,9.73
2022-09-22T06:57:02.566Z,14.20
2022-09-22T06:59:29.736Z,16.90
2022-09-22T07:02:15.042Z,9.53
2022-09-22T07:04:49.614Z,9.10
2022-09-22T07:07:32.158Z,7.57
2022-09-22T07:09:59.325Z,7.20
2022-09-22T07:12:26.575Z,9.97
2022-09-22T07:14:56.541Z,7.87
2022-09-22T07:17:23.806Z,9.17
2022-09-22T07:20:09.324Z,9.07
2022-09-22T07:22:39.546Z,11.77
2022-09-22T07:25:09.319Z,12.33
2022-09-22T07:27:36.492Z,8.53
2022-09-22T07:30:07.736Z,10.80
2022-09-22T07:32:37.700Z,8.73
2022-09-22T07:35:05.225Z,10.30
2022-09-22T07:37:41.579Z,8.27
2022-09-22T07:40:16.522Z,5.93
2022-09-22T07:42:58.828Z,7.90
2022-09-22T07:45:25.922Z,8.27
2022-09-22T07:48:16.880Z,7.20
2022-09-22T07:50:43.916Z,10.13
2022-09-22T07:53:10.981Z,7.77
2022-09-22T07:55:41.688Z,5.90
2022-09-22T07:58:09.829Z,5.10
2022-09-22T08:00:46.505Z,4.07
2022-09-22T08:03:13.599Z,6.07
2022-09-22T08:05:47.085Z,9.63
2022-09-22T08:08:16.680Z,5.60
2022-09-22T08:10:46.729Z,7.70
2022-09-22T08:13:13.826Z,5.13
2022-09-22T08:15:44.314Z,5.67
2022-09-22T08:18:14.465Z,5.17
2022-09-22T08:20:45.065Z,6.30
2022-09-22T08:23:12.811Z,7.80
2022-09-22T08:25:40.378Z,6.13
2022-09-22T08:28:07.501Z,5.40
2022-09-22T08:30:35.806Z,3.73
2022-09-22T08:33:03.371Z,3.73
2022-09-22T08:35:30.504Z,3.10
2022-09-22T08:37:57.562Z,4.63
2022-09-22T08:40:24.794Z,5.47
2022-09-22T08:42:54.482Z,4.73
2022-09-22T08:45:35.268Z,5.87
2022-09-22T08:48:41.667Z,3.22
2022-09-22T08:51:37.161Z,9.55
2022-09-22T08:54:05.380Z,4.40
2022-09-22T08:56:47.366Z,4.07
2022-09-22T08:59:33.010Z,3.13
2022-09-22T09:02:38.586Z,4.00
2022-09-22T09:05:39.971Z,3.80
2022-09-22T09:08:45.178Z,3.75
2022-09-22T09:11:36.852Z,3.55
2022-09-22T09:14:23.695Z,4.47
2022-09-22T09:17:19.430Z,4.35
2022-09-22T09:19:52.599Z,5.47
2022-09-22T09:22:25.518Z,3.97
2022-09-22T09:25:23.927Z,3.88
2022-09-22T09:28:00.624Z,2.85
2022-09-22T09:30:38.463Z,3.63
2022-09-22T09:33:17.684Z,4.72
2022-09-22T09:35:50.481Z,5.00
2022-09-22T09:38:44.535Z,4.13
2022-09-22T09:41:18.047Z,3.60
2022-09-22T09:43:45.902Z,2.70
2022-09-22T09:46:44.040Z,2.58
2022-09-22T09:49:20.450Z,3.05
2022-09-22T09:51:51.699Z,2.63
2022-09-22T09:54:19.814Z,2.67
2022-09-22T09:57:14.785Z,2.17
2022-09-22T10:00:05.330Z,4.80
2022-09-22T10:02:37.646Z,5.93
2022-09-22T10:05:22.467Z,3.50
2022-09-22T10:07:53.969Z,8.85
2022-09-22T10:10:30.418Z,4.50
2022-09-22T10:13:00.570Z,2.97
2022-09-22T10:15:28.006Z,2.55
2022-09-22T10:17:55.162Z,2.75
2022-09-22T10:20:31.760Z,3.20
2022-09-22T10:23:21.126Z,7.13
2022-09-22T10:25:50.815Z,3.85
2022-09-22T10:28:21.961Z,3.10
2022-09-22T10:31:24.802Z,1.80
2022-09-22T10:34:00.797Z,3.38
2022-09-22T10:36:30.848Z,2.10
2022-09-22T10:38:59.791Z,3.83
2022-09-22T10:41:35.557Z,4.40
2022-09-22T10:44:38.012Z,2.35
2022-09-22T10:47:27.360Z,2.25
2022-09-22T10:50:13.402Z,2.40
2022-09-22T10:53:13.029Z,2.25
2022-09-22T10:55:56.648Z,2.80
2022-09-22T10:58:41.002Z,2.42
2022-09-22T11:01:39.643Z,4.47
2022-09-22T11:04:44.637Z,2.90
2022-09-22T11:08:21.403Z,2.97
2022-09-22T11:11:39.825Z,2.95
2022-09-22T11:14:25.648Z,2.88
2022-09-22T11:17:27.116Z,2.42
2022-09-22T11:20:03.356Z,2.10
2022-09-22T11:22:48.945Z,2.78
2022-09-22T11:25:47.329Z,3.80
2022-09-22T11:28:26.660Z,2.50
2022-09-22T11:31:01.125Z,3.05
2022-09-22T11:37:27.856Z,1.95
2022-09-22T11:40:18.202Z,3.75
2022-09-22T11:43:23.213Z,2.38
2022-09-22T11:46:22.804Z,1.95
2022-09-22T11:48:52.997Z,1.92
2022-09-22T11:51:47.912Z,3.53
2022-09-22T11:55:00.524Z,2.53
2022-09-22T11:57:33.903Z,3.33
2022-09-22T12:00:19.027Z,2.78
2022-09-22T12:03:01.997Z,3.38
2022-09-22T12:05:44.792Z,4.05
2022-09-22T12:08:37.120Z,2.60
2022-09-22T12:13:53.897Z,2.58
2022-09-22T12:16:31.351Z,2.72
2022-09-22T12:19:01.421Z,1.45
2022-09-22T12:21:42.561Z,2.45
2022-09-22T12:24:11.373Z,3.85
2022-09-22T12:26:41.571Z,7.28
2022-09-22T12:29:27.901Z,6.72
2022-09-22T12:31:59.062Z,2.77
2022-09-22T12:34:34.408Z,1.80
2022-09-22T12:37:29.858Z,2.83
2022-09-22T12:40:05.145Z,3.10
2022-09-22T12:42:37.831Z,1.77
2022-09-22T12:45:35.247Z,2.58
2022-09-22T12:48:10.503Z,4.40
2022-09-22T12:51:15.851Z,2.65
2022-09-22T12:53:44.033Z,2.58
2022-09-22T12:56:40.907Z,2.40
2022-09-22T12:59:35.994Z,2.35
2022-09-22T13:02:31.031Z,3.63
2022-09-22T13:04:58.748Z,3.70
2022-09-22T13:07:36.298Z,2.08
2022-09-22T13:10:21.895Z,2.05
2022-09-22T13:13:01.719Z,2.38
2022-09-22T13:15:33.839Z,3.28
2022-09-22T13:18:01.496Z,2.10
2022-09-22T13:20:28.646Z,2.72
2022-09-22T13:23:12.795Z,3.70
2022-09-22T13:25:42.645Z,3.58
2022-09-22T13:28:14.266Z,2.30
2022-09-22T13:31:19.220Z,2.40
2022-09-22T13:33:46.756Z,1.45
2022-09-22T13:36:26.690Z,2.45
2022-09-22T13:38:56.545Z,5.22
2022-09-22T13:41:29.097Z,2.03
2022-09-22T13:44:17.011Z,2.05
2022-09-22T13:46:48.241Z,2.65
2022-09-22T13:49:27.498Z,1.13
2022-09-22T13:52:06.216Z,2.83
2022-09-22T13:54:36.828Z,1.77
2022-09-22T13:57:06.950Z,2.58
2022-09-22T13:59:41.569Z,3.40
2022-09-22T14:02:12.384Z,1.10
2022-09-22T14:04:50.961Z,2.35
2022-09-22T14:07:21.283Z,2.70
2022-09-22T14:09:51.681Z,2.85
2022-09-22T14:12:19.913Z,2.13
2022-09-22T14:14:47.190Z,1.73
2022-09-22T14:17:25.959Z,3.03
2022-09-22T14:20:09.392Z,1.25
2022-09-22T14:22:43.392Z,1.75
2022-09-22T14:25:19.434Z,1.25
2022-09-22T14:27:55.624Z,2.03
2022-09-22T14:30:31.272Z,1.52
2022-09-22T14:33:02.809Z,1.77
2022-09-22T14:35:31.724Z,1.35
2022-09-22T14:38:15.693Z,2.08
2022-09-22T14:40:55.196Z,1.63
2022-09-22T14:43:42.575Z,3.20
2022-09-22T14:46:41.855Z,2.60
2022-09-22T14:49:47.680Z,1.63
2022-09-22T14:52:26.093Z,1.63
2022-09-22T14:54:56.545Z,2.07
2022-09-22T14:57:26.496Z,1.80
2022-09-22T15:00:15.789Z,2.00
2022-09-22T15:02:51.949Z,1.40
2022-09-22T15:05:29.625Z,1.93
2022-09-22T15:08:20.779Z,2.43
2022-09-22T15:10:53.293Z,1.50
2022-09-22T15:13:43.650Z,1.47
2022-09-22T15:16:40.304Z,1.80
2022-09-22T15:19:13.253Z,2.77
2022-09-22T15:21:47.548Z,2.67
2022-09-22T15:24:22.222Z,3.97
2022-09-22T15:26:49.468Z,1.70
2022-09-22T15:29:17.957Z,2.07
2022-09-22T15:31:45.179Z,2.13
2022-09-22T15:34:15.086Z,3.87
2022-09-22T15:36:46.847Z,3.83
2022-09-22T15:39:21.791Z,3.33
2022-09-22T15:41:49.845Z,2.33
2022-09-22T15:44:17.513Z,3.40
2022-09-22T15:46:50.123Z,2.43
2022-09-22T15:49:22.556Z,2.40
2022-09-22T15:51:50.148Z,1.73
2022-09-22T15:54:20.111Z,2.07
2022-09-22T15:56:50.116Z,1.80
2022-09-22T15:59:28.382Z,4.30
2022-09-22T16:01:57.209Z,0.80
2022-09-22T16:04:25.322Z,3.03
2022-09-22T16:06:55.800Z,1.33
2022-09-22T16:09:23.041Z,0.93
2022-09-22T16:11:53.977Z,1.90
2022-09-22T16:14:22.922Z,2.43
2022-09-22T16:16:51.764Z,1.10
2022-09-22T16:19:18.990Z,1.43
2022-09-22T16:21:56.406Z,1.07
2022-09-22T16:24:23.863Z,0.97
2022-09-22T16:26:51.901Z,1.00
2022-09-22T16:29:19.357Z,2.30
2022-09-22T16:31:59.918Z,3.97
2022-09-22T16:34:27.187Z,2.70
2022-09-22T16:36:54.337Z,1.10
2022-09-22T16:39:21.584Z,0.80
2022-09-22T16:41:49.051Z,1.00
2022-09-22T16:44:34.371Z,1.60
2022-09-22T16:47:23.101Z,1.77
2022-09-22T16:49:51.361Z,1.20
2022-09-22T16:53:05.511Z,1.90
2022-09-22T16:55:37.212Z,2.50
2022-09-22T16:58:08.492Z,1.40
2022-09-22T17:00:36.107Z,1.67
2022-09-22T17:03:03.285Z,1.30
2022-09-22T17:05:32.929Z,1.23
2022-09-22T17:08:28.749Z,1.57
2022-09-22T17:10:56.166Z,2.67
2022-09-22T17:13:27.979Z,2.30
2022-09-22T17:19:04.965Z,1.30
2022-09-22T17:21:35.493Z,2.50
2022-09-22T17:24:04.356Z,1.40
2022-09-22T17:26:37.662Z,2.43
2022-09-22T17:29:12.248Z,27.03
2022-09-22T17:31:41.054Z,16.83
2022-09-22T17:34:09.811Z,14.57
2022-09-22T17:36:38.015Z,15.03
2022-09-22T17:39:06.467Z,81.07
2022-09-22T17:41:44.396Z,33.43
2022-09-22T17:44:22.518Z,18.97
2022-09-22T17:47:41.381Z,4.90
2022-09-22T17:50:30.640Z,8.13
2022-09-22T17:53:31.548Z,17.70
2022-09-22T17:56:10.375Z,11.30
2022-09-22T17:58:44.011Z,7.87
2022-09-22T18:01:11.455Z,14.00
2022-09-22T18:03:43.062Z,8.30
2022-09-22T18:06:16.858Z,9.90
2022-09-22T18:08:44.653Z,4.40
2022-09-22T18:11:13.742Z,5.10
2022-09-22T18:13:56.321Z,4.33
2022-09-22T18:16:33.637Z,6.07
2022-09-22T18:19:03.158Z,7.20
2022-09-22T18:24:29.349Z,11.53
2022-09-22T18:26:58.020Z,9.13
2022-09-22T18:32:19.854Z,6.67
2022-09-22T18:34:53.064Z,7.90
2022-09-22T18:37:21.816Z,5.53
2022-09-22T18:39:55.271Z,5.77
2022-09-22T18:42:38.787Z,3.50
2022-09-22T18:45:06.654Z,2.20
2022-09-22T18:47:39.725Z,2.57
2022-09-22T18:50:25.171Z,4.43
2022-09-22T18:52:56.779Z,2.50
2022-09-22T18:55:36.502Z,4.63
2022-09-22T18:58:03.566Z,2.90
2022-09-22T19:00:31.602Z,4.17
2022-09-22T19:03:00.460Z,3.23
2022-09-22T19:05:44.267Z,2.43
2022-09-22T19:08:31.162Z,2.33
2022-09-22T19:15:03.559Z,2.50
2022-09-22T19:17:31.049Z,1.97
2022-09-22T19:43:39.718Z,2.03
2022-09-22T20:07:31.925Z,4.07
2022-09-22T20:12:52.343Z,4.27
2022-09-22T20:28:50.208Z,3.50
2022-09-22T20:35:22.530Z,3.57
2022-09-22T20:40:36.231Z,3.07
2022-09-22T20:43:03.839Z,4.43
2022-09-22T20:45:31.406Z,7.57
2022-09-22T20:47:58.735Z,3.83
2022-09-22T20:50:58.064Z,5.10
2022-09-22T20:53:25.293Z,4.10
2022-09-22T20:56:02.137Z,4.23
2022-09-22T20:58:32.687Z,11.70
2022-09-22T21:01:00.982Z,5.93
2022-09-22T21:03:29.069Z,3.87
2022-09-22T21:06:04.662Z,6.33
2022-09-22T21:09:10.928Z,6.90
2022-09-22T21:11:38.313Z,6.27
2022-09-22T21:14:06.083Z,9.27
2022-09-22T21:16:36.120Z,5.10
2022-09-22T21:19:41.670Z,5.00
2022-09-22T21:25:03.309Z,7.27
2022-09-22T21:27:30.517Z,11.57
2022-09-22T21:30:42.722Z,7.37
2022-09-22T21:38:31.866Z,14.33
2022-09-22T21:51:24.783Z,11.90
2022-09-22T21:53:53.080Z,7.93
2022-09-22T21:56:25.945Z,11.07
2022-09-22T22:03:37.258Z,9.13
2022-09-22T22:06:37.990Z,9.70
2022-09-22T22:17:45.644Z,6.57
2022-09-22T22:20:19.146Z,5.97
2022-09-22T22:22:46.907Z,6.20
2022-09-22T22:25:17.448Z,6.20
2022-09-22T22:27:45.934Z,7.17
2022-09-22T22:34:40.395Z,5.53
2022-09-22T22:37:10.156Z,4.93
2022-09-22T22:39:38.029Z,5.43
2022-09-22T22:42:05.876Z,7.33
2022-09-22T22:44:33.128Z,5.83
2022-09-22T22:54:46.818Z,7.53
2022-09-22T23:01:10.107Z,6.47
2022-09-22T23:03:41.381Z,6.23
2022-09-22T23:18:43.835Z,5.27
2022-09-22T23:21:14.914Z,8.53
2022-09-22T23:30:33.719Z,6.93
2022-09-22T23:33:01.109Z,8.60
2022-09-22T23:39:24.106Z,6.60
2022-09-22T23:41:52.152Z,5.30
2022-09-22T23:44:19.802Z,6.80
2022-09-22T23:47:37.605Z,4.43
2022-09-22T23:55:23.062Z,5.17
2022-09-22T23:57:50.512Z,5.17
